Time;durP1;ratioP1;P1;durP2;ratioP2;P2;SDS_P1;SDS_P2;PMS_P1;PMS_P2;Temp;Humidity;BMP_temperature;BMP_pressure;BME280_temperature;BME280_humidity;BME280_pressure;Samples;Min_cycle;Max_cycle;Signal;HPM_P1;HPM_P2
2024/01/16 00:00:53;;;;;;;24.10;17.20;;;;;;;-0.65;95.68;98317.23;87177;270;136927;-64
2024/01/16 00:02:55;;;;;;;26.40;18.50;;;;;;;-0.55;95.33;98314.61;87313;269;22586;-65
2024/01/16 00:04:57;;;;;;;21.00;15.20;;;;;;;-0.49;94.74;98305.24;87218;274;136255;-67
2024/01/16 00:07:00;;;;;;;24.90;18.70;;;;;;;-0.49;94.57;98299.66;87333;270;23987;-69
2024/01/16 00:09:02;;;;;;;24.00;15.90;;;;;;;-0.52;94.51;98302.42;87496;269;135889;-68
2024/01/16 00:11:04;;;;;;;21.70;16.50;;;;;;;-0.54;94.70;98299.90;87317;274;22576;-67
2024/01/16 00:13:06;;;;;;;25.60;18.70;;;;;;;-0.51;94.74;98304.31;87208;278;136670;-67
2024/01/16 00:15:09;;;;;;;21.60;16.90;;;;;;;-0.50;94.81;98302.02;87393;267;25130;-66
2024/01/16 00:17:11;;;;;;;22.20;16.20;;;;;;;-0.47;94.54;98299.06;87240;270;136024;-66
2024/01/16 00:19:13;;;;;;;23.20;16.40;;;;;;;-0.44;94.33;98293.38;87377;273;22729;-65
2024/01/16 00:21:15;;;;;;;24.80;17.70;;;;;;;-0.43;94.04;98296.37;87130;269;136175;-70
2024/01/16 00:23:17;;;;;;;21.60;15.10;;;;;;;-0.39;94.03;98301.23;87266;271;23764;-71
2024/01/16 00:25:20;;;;;;;24.20;18.60;;;;;;;-0.37;93.90;98302.45;87212;270;137046;-68
2024/01/16 00:27:22;;;;;;;22.50;16.20;;;;;;;-0.37;93.86;98302.90;87319;270;22778;-66
2024/01/16 00:29:24;;;;;;;22.40;17.30;;;;;;;-0.38;93.51;98302.28;87291;269;137313;-65
2024/01/16 00:31:26;;;;;;;21.30;15.80;;;;;;;-0.41;93.27;98308.80;87269;270;22638;-67
2024/01/16 00:33:28;;;;;;;21.30;15.90;;;;;;;-0.47;93.13;98312.91;87203;273;137500;-66
2024/01/16 00:35:29;;;;;;;18.80;15.20;;;;;;;-0.51;93.32;98311.97;87442;273;22594;-67
2024/01/16 00:37:32;;;;;;;24.10;16.60;;;;;;;-0.51;93.20;98308.23;87258;265;138210;-65
2024/01/16 00:39:33;;;;;;;20.90;16.10;;;;;;;-0.51;93.12;98304.41;87269;262;22567;-67
2024/01/16 00:41:36;;;;;;;22.00;16.40;;;;;;;-0.54;93.34;98295.39;87096;269;136040;-66
2024/01/16 00:43:39;;;;;;;23.00;16.80;;;;;;;-0.60;93.68;98295.44;87419;270;22584;-68
2024/01/16 00:45:41;;;;;;;20.00;16.10;;;;;;;-0.66;94.16;98296.03;87076;269;137583;-66
2024/01/16 00:47:44;;;;;;;22.50;16.80;;;;;;;-0.69;94.36;98293.69;87306;273;22557;-67
2024/01/16 00:49:47;;;;;;;18.30;14.70;;;;;;;-0.73;94.31;98297.91;87226;270;136110;-68
2024/01/16 00:51:49;;;;;;;21.20;15.40;;;;;;;-0.75;94.44;98292.02;87294;270;25101;-66
2024/01/16 00:53:54;;;;;;;20.70;15.30;;;;;;;-0.77;94.43;98291.89;87184;269;136231;-65
2024/01/16 00:55:56;;;;;;;21.90;16.00;;;;;;;-0.80;94.80;98295.37;87269;266;22918;-65
2024/01/16 00:57:57;;;;;;;22.40;16.90;;;;;;;-0.80;94.77;98297.46;87154;270;136213;-65
2024/01/16 00:59:59;;;;;;;23.90;16.90;;;;;;;-0.78;94.63;98297.04;87239;274;22578;-65
2024/01/16 01:02:03;;;;;;;24.30;17.20;;;;;;;-0.69;94.44;98292.53;87190;270;136935;-66
2024/01/16 01:04:05;;;;;;;24.30;18.80;;;;;;;-0.59;93.89;98288.20;87120;269;138870;-69
2024/01/16 01:06:07;;;;;;;24.60;17.00;;;;;;;-0.59;93.69;98282.20;87376;274;22563;-66
2024/01/16 01:08:11;;;;;;;22.20;17.50;;;;;;;-0.64;93.93;98282.95;87288;271;137624;-68
2024/01/16 01:10:13;;;;;;;23.70;18.30;;;;;;;-0.69;94.08;98285.64;87238;269;22641;-64
2024/01/16 01:12:17;;;;;;;27.30;19.00;;;;;;;-0.72;94.15;98287.05;87200;273;136548;-67
2024/01/16 01:14:19;;;;;;;27.70;19.70;;;;;;;-0.78;94.62;98293.23;87318;273;22568;-66
2024/01/16 01:16:21;;;;;;;25.50;18.80;;;;;;;-0.83;94.89;98290.08;87182;273;136177;-67
2024/01/16 01:18:23;;;;;;;26.30;19.60;;;;;;;-0.84;94.99;98292.63;87246;274;22598;-65
2024/01/16 01:20:25;;;;;;;29.60;20.10;;;;;;;-0.86;95.17;98293.50;87254;269;136080;-66
2024/01/16 01:22:27;;;;;;;25.40;17.80;;;;;;;-0.86;95.45;98288.90;87217;267;24067;-66
2024/01/16 01:24:30;;;;;;;31.00;22.50;;;;;;;-0.80;95.44;98294.16;87230;267;137034;-68
2024/01/16 01:26:32;;;;;;;30.80;21.10;;;;;;;-0.72;95.02;98298.89;87300;277;25182;-66
2024/01/16 01:28:34;;;;;;;29.30;19.70;;;;;;;-0.66;94.80;98301.13;87266;277;138122;-67
2024/01/16 01:30:35;;;;;;;26.70;17.80;;;;;;;-0.65;94.60;98301.79;87065;268;22668;-66
2024/01/16 01:32:38;;;;;;;30.00;21.80;;;;;;;-0.73;94.85;98304.36;87120;270;136311;-67
2024/01/16 01:34:43;;;;;;;28.00;19.90;;;;;;;-0.78;95.21;98301.90;87445;269;23716;-65
2024/01/16 01:36:47;;;;;;;28.90;20.50;;;;;;;-0.83;95.37;98303.67;87204;274;137272;-64
2024/01/16 01:38:49;;;;;;;31.50;21.50;;;;;;;-0.91;95.97;98300.93;87302;278;23763;-66
2024/01/16 01:40:51;;;;;;;32.10;22.40;;;;;;;-0.95;96.41;98308.19;87196;274;136430;-66
2024/01/16 01:42:53;;;;;;;26.60;19.90;;;;;;;-0.99;96.77;98312.93;87294;274;22588;-66
2024/01/16 01:44:55;;;;;;;27.90;19.00;;;;;;;-1.01;96.93;98313.59;87220;269;137876;-68
2024/01/16 01:46:57;;;;;;;30.90;21.30;;;;;;;-0.96;96.82;98316.44;87311;271;22576;-64
2024/01/16 01:48:59;;;;;;;33.50;20.90;;;;;;;-0.89;96.61;98321.40;87185;269;136730;-68
2024/01/16 01:51:02;;;;;;;24.50;18.70;;;;;;;-0.87;96.74;98325.10;87410;274;22582;-67
2024/01/16 01:53:04;;;;;;;31.30;20.90;;;;;;;-0.93;97.21;98334.77;87325;271;136261;-64
2024/01/16 01:55:12;;;;;;;27.90;20.20;;;;;;;-0.97;97.51;98344.41;87285;274;22563;-66
2024/01/16 01:57:14;;;;;;;30.30;19.50;;;;;;;-0.99;97.72;98347.09;87226;269;137800;-65
2024/01/16 01:59:18;;;;;;;31.20;21.00;;;;;;;-1.04;97.95;98333.83;87344;269;22558;-67
2024/01/16 02:01:22;;;;;;;28.60;20.00;;;;;;;-1.11;98.31;98332.67;87225;273;136542;-66
2024/01/16 02:03:27;;;;;;;34.00;22.00;;;;;;;-1.18;98.90;98335.16;87405;269;22565;-65
2024/01/16 02:05:30;;;;;;;29.70;20.40;;;;;;;-1.12;98.73;98329.32;87207;266;138420;-66
2024/01/16 02:07:34;;;;;;;29.70;19.90;;;;;;;-1.04;98.66;98324.21;87399;269;22571;-65
2024/01/16 02:09:37;;;;;;;24.90;19.80;;;;;;;-0.95;98.26;98322.25;87203;270;138246;-65
2024/01/16 02:11:41;;;;;;;25.20;18.70;;;;;;;-0.95;98.04;98311.42;87328;278;25357;-67
2024/01/16 02:13:43;;;;;;;28.30;19.50;;;;;;;-1.00;98.32;98309.99;87341;274;136462;-65
2024/01/16 02:15:45;;;;;;;29.30;19.90;;;;;;;-1.05;98.57;98316.95;87338;269;25220;-65
2024/01/16 02:17:47;;;;;;;32.30;20.20;;;;;;;-1.10;98.79;98314.80;87225;269;136310;-64
2024/01/16 02:19:49;;;;;;;28.20;19.40;;;;;;;-1.20;99.38;98310.58;87406;266;23667;-65
2024/01/16 02:21:58;;;;;;;25.90;19.40;;;;;;;-1.25;99.38;98306.42;87203;269;136455;-67
2024/01/16 02:24:01;;;;;;;29.20;20.20;;;;;;;-1.30;99.79;98308.02;87324;269;22558;-65
2024/01/16 02:26:04;;;;;;;25.60;17.70;;;;;;;-1.27;99.67;98312.41;87397;276;22823;-67
2024/01/16 02:28:06;;;;;;;25.10;18.50;;;;;;;-1.17;99.64;98316.08;87342;273;137102;-66
2024/01/16 02:30:08;;;;;;;26.80;17.80;;;;;;;-1.12;99.22;98317.75;87298;266;24285;-66
2024/01/16 02:32:12;;;;;;;28.40;19.20;;;;;;;-1.15;99.39;98314.27;87181;269;138377;-66
2024/01/16 02:34:14;;;;;;;;;;;;;;;-1.20;99.61;98313.75;87388;265;25229;-69
2024/01/16 02:36:16;;;;;;;24.80;15.80;;;;;;;-1.24;99.71;98310.65;87138;266;122803;-65
2024/01/16 02:38:19;;;;;;;24.40;17.60;;;;;;;-1.28;99.94;98315.25;87269;265;22571;-64
2024/01/16 02:40:20;;;;;;;29.80;20.40;;;;;;;-1.32;100.00;98320.40;87285;272;136379;-64
2024/01/16 02:42:22;;;;;;;28.50;20.30;;;;;;;-1.35;100.00;98324.42;87267;262;22525;-69
2024/01/16 02:44:24;;;;;;;31.70;21.10;;;;;;;-1.40;100.00;98325.16;87196;270;136399;-67
2024/01/16 02:46:26;;;;;;;30.20;20.90;;;;;;;-1.40;100.00;98327.80;87223;278;22563;-70
2024/01/16 02:48:28;;;;;;;30.20;20.40;;;;;;;-1.32;100.00;98328.90;87207;269;137081;-65
2024/01/16 02:50:30;;;;;;;32.80;22.30;;;;;;;-1.26;100.00;98326.16;87288;267;23759;-66
2024/01/16 02:52:32;;;;;;;27.30;20.10;;;;;;;-1.21;100.00;98328.75;87215;278;136808;-64
2024/01/16 02:54:34;;;;;;;32.70;20.60;;;;;;;-1.20;99.96;98330.64;87311;278;22637;-69
2024/01/16 02:56:36;;;;;;;26.60;18.50;;;;;;;-1.26;100.00;98326.76;87246;268;137418;-66
2024/01/16 02:58:38;;;;;;;30.30;21.10;;;;;;;-1.30;100.00;98323.85;87250;272;22640;-66
2024/01/16 03:00:40;;;;;;;30.10;20.90;;;;;;;-1.32;100.00;98324.08;87299;276;136553;-64
2024/01/16 03:02:41;;;;;;;32.00;20.50;;;;;;;-1.35;100.00;98316.88;87288;274;24026;-66
2024/01/16 03:04:43;;;;;;;32.80;19.90;;;;;;;-1.36;100.00;98317.56;87185;270;137870;-67
2024/01/16 03:06:45;;;;;;;28.90;20.40;;;;;;;-1.37;100.00;98320.55;87325;269;24142;-66
2024/01/16 03:08:47;;;;;;;29.20;17.80;;;;;;;-1.30;100.00;98320.86;87168;262;137302;-66
2024/01/16 03:10:49;;;;;;;23.40;17.00;;;;;;;-1.21;99.96;98316.93;87143;269;24190;-65
2024/01/16 03:12:53;;;;;;;27.00;20.10;;;;;;;-1.13;99.64;98324.19;87176;270;136751;-63
2024/01/16 03:14:57;;;;;;;27.80;20.60;;;;;;;-1.14;99.58;98329.12;87266;269;24036;-66
2024/01/16 03:17:01;;;;;;;25.10;18.00;;;;;;;-1.19;99.92;98328.09;87203;270;136919;-67
2024/01/16 03:19:03;;;;;;;30.20;20.70;;;;;;;-1.22;99.79;98331.69;87488;269;22575;-65
2024/01/16 03:21:06;;;;;;;27.20;21.10;;;;;;;-1.21;99.71;98330.91;87260;274;137274;-67
2024/01/16 03:23:08;;;;;;;27.60;21.80;;;;;;;-1.24;99.72;98325.25;87334;270;22609;-65
2024/01/16 03:25:12;;;;;;;32.60;23.30;;;;;;;-1.22;99.54;98329.44;87316;272;136082;-65
2024/01/16 03:27:14;;;;;;;31.40;20.90;;;;;;;-1.24;99.56;98330.90;87328;271;25137;-66
2024/01/16 03:29:16;;;;;;;31.30;21.30;;;;;;;-1.32;99.83;98332.95;87210;272;136376;-67
2024/01/16 03:31:21;;;;;;;32.50;22.50;;;;;;;-1.34;99.96;98336.65;87341;270;22564;-69
2024/01/16 03:33:23;;;;;;;27.90;19.40;;;;;;;-1.28;99.72;98334.23;88807;273;136681;-65
2024/01/16 03:35:25;;;;;;;29.50;20.30;;;;;;;-1.13;99.28;98336.34;87380;262;22576;-67
2024/01/16 03:37:27;;;;;;;25.40;19.30;;;;;;;-1.02;98.61;98340.76;87150;273;137767;-65
2024/01/16 03:39:29;;;;;;;29.00;20.40;;;;;;;-0.99;98.36;98339.21;87350;265;22567;-65
2024/01/16 03:41:31;;;;;;;29.90;21.70;;;;;;;-1.03;98.80;98337.33;87257;269;136237;-67
2024/01/16 03:43:34;;;;;;;26.10;19.10;;;;;;;-1.07;99.06;98334.45;87278;270;22567;-65
2024/01/16 03:45:36;;;;;;;33.70;21.30;;;;;;;-1.07;98.96;98332.21;87152;266;136196;-66
2024/01/16 03:47:38;;;;;;;27.10;19.80;;;;;;;-1.07;99.01;98331.20;87319;269;22574;-64
2024/01/16 03:49:40;;;;;;;29.60;20.20;;;;;;;-1.10;98.83;98328.20;87209;269;136284;-65
2024/01/16 03:51:45;;;;;;;32.60;20.20;;;;;;;-1.12;98.83;98330.85;87259;274;22575;-66
2024/01/16 03:53:48;;;;;;;27.70;21.50;;;;;;;-1.15;98.72;98322.24;87252;269;137679;-65
2024/01/16 03:55:51;;;;;;;31.20;20.50;;;;;;;-1.15;98.90;98320.90;87199;270;22566;-67
2024/01/16 03:57:52;;;;;;;31.10;22.00;;;;;;;-1.18;98.72;98323.75;87309;269;136266;-65
2024/01/16 03:59:54;;;;;;;32.40;19.70;;;;;;;-1.20;98.93;98324.37;87413;278;22658;-66
2024/01/16 04:01:56;;;;;;;27.60;19.70;;;;;;;-1.17;98.75;98312.25;87266;270;137484;-66
2024/01/16 04:03:58;;;;;;;26.30;18.20;;;;;;;-1.08;98.25;98312.92;87257;269;24010;-64
2024/01/16 04:06:00;;;;;;;33.20;21.30;;;;;;;-1.01;97.75;98310.13;87174;270;136890;-68
2024/01/16 04:08:04;;;;;;;29.20;20.20;;;;;;;-1.02;97.69;98311.77;87350;265;22605;-64
2024/01/16 04:10:06;;;;;;;29.90;20.60;;;;;;;-1.06;98.25;98315.20;87271;270;22571;-64
2024/01/16 04:12:08;;;;;;;27.70;20.40;;;;;;;-1.06;98.52;98319.05;87277;269;136271;-68
2024/01/16 04:14:10;;;;;;;25.20;19.80;;;;;;;-1.05;98.51;98320.52;87202;268;22523;-66
2024/01/16 04:16:12;;;;;;;29.70;22.70;;;;;;;-1.08;98.44;98319.48;87162;270;136808;-66
2024/01/16 04:18:14;;;;;;;29.30;19.70;;;;;;;-1.09;98.32;98320.81;87307;269;22552;-68
2024/01/16 04:20:16;;;;;;;27.80;20.90;;;;;;;-1.09;98.34;98322.35;87197;269;136655;-66
2024/01/16 04:22:18;;;;;;;27.50;19.90;;;;;;;-1.10;98.15;98324.92;87298;266;22570;-65
2024/01/16 04:24:20;;;;;;;28.30;21.00;;;;;;;-1.12;98.39;98331.70;87234;266;136388;-66
2024/01/16 04:26:22;;;;;;;24.60;17.90;;;;;;;-1.12;98.09;98337.13;87310;262;22843;-66
2024/01/16 04:28:24;;;;;;;27.60;18.60;;;;;;;-1.14;98.00;98334.08;87168;270;137620;-68
2024/01/16 04:30:25;;;;;;;26.40;19.20;;;;;;;-1.09;97.86;98336.80;87282;270;25124;-66
2024/01/16 04:32:27;;;;;;;29.10;18.50;;;;;;;-0.97;97.33;98332.95;87226;269;137216;-70
2024/01/16 04:34:29;;;;;;;27.90;19.10;;;;;;;-0.89;96.98;98335.21;87195;261;22632;-67
2024/01/16 04:36:31;;;;;;;24.00;17.80;;;;;;;-0.87;96.75;98339.55;87356;273;137468;-78
2024/01/16 04:38:33;;;;;;;28.10;19.70;;;;;;;-0.90;96.84;98336.51;87195;271;25271;-69
2024/01/16 04:40:35;;;;;;;26.70;18.60;;;;;;;-0.90;96.90;98334.97;87077;274;136246;-65
2024/01/16 04:42:37;;;;;;;24.30;17.40;;;;;;;-0.89;96.89;98328.99;87191;270;22558;-65
2024/01/16 04:44:39;;;;;;;23.60;17.40;;;;;;;-0.91;96.94;98332.98;87082;270;136279;-65
2024/01/16 04:46:41;;;;;;;26.50;17.70;;;;;;;-0.90;96.38;98333.41;87206;271;24013;-64
2024/01/16 04:48:43;;;;;;;25.70;19.20;;;;;;;-0.92;96.27;98341.28;87151;270;136391;-66
2024/01/16 04:50:46;;;;;;;23.70;17.90;;;;;;;-0.95;96.35;98343.90;87263;278;22576;-65
2024/01/16 04:52:48;;;;;;;24.60;16.70;;;;;;;-0.99;96.53;98344.90;87223;270;136377;-65
2024/01/16 04:54:54;;;;;;;23.80;16.50;;;;;;;-0.97;96.40;98348.64;87310;269;22640;-66
2024/01/16 04:56:56;;;;;;;26.60;15.80;;;;;;;-0.90;96.22;98344.55;87194;269;136944;-68
2024/01/16 04:58:58;;;;;;;26.50;17.60;;;;;;;-0.83;96.02;98343.27;87369;267;23805;-67
2024/01/16 05:01:00;;;;;;;23.60;16.20;;;;;;;-0.81;95.33;98346.70;87249;266;136467;-68
2024/01/16 05:03:06;;;;;;;25.60;17.80;;;;;;;-0.85;95.59;98347.88;87293;270;22656;-72
2024/01/16 05:05:07;;;;;;;30.60;20.40;;;;;;;-0.89;95.73;98344.64;87161;277;136468;-64
2024/01/16 05:07:09;;;;;;;27.40;18.70;;;;;;;-0.88;95.60;98347.35;87275;269;22568;-69
2024/01/16 05:09:12;;;;;;;29.60;18.30;;;;;;;-0.85;95.28;98349.45;87003;269;136350;-69
2024/01/16 05:11:14;;;;;;;31.40;17.60;;;;;;;-0.89;95.57;98351.41;87154;266;24059;-66
2024/01/16 05:13:15;;;;;;;29.30;20.50;;;;;;;-1.00;96.04;98350.96;87108;270;137462;-66
2024/01/16 05:15:17;;;;;;;30.90;20.40;;;;;;;-1.05;96.60;98352.63;87190;278;22577;-67
2024/01/16 05:17:19;;;;;;;29.30;19.10;;;;;;;-1.03;96.60;98356.88;87090;266;136933;-67
2024/01/16 05:19:23;;;;;;;29.50;20.20;;;;;;;-0.96;96.30;98356.73;87317;269;22565;-70
2024/01/16 05:21:25;;;;;;;28.20;19.20;;;;;;;-0.91;96.12;98353.18;87145;273;136900;-67
2024/01/16 05:23:27;;;;;;;28.00;19.30;;;;;;;-0.92;96.13;98350.67;87185;269;23742;-69
2024/01/16 05:25:30;;;;;;;34.90;20.40;;;;;;;-0.95;96.47;98354.00;87144;269;136295;-69
2024/01/16 05:27:31;;;;;;;33.20;20.70;;;;;;;-0.99;96.69;98350.58;87223;278;24042;-68
2024/01/16 05:29:33;;;;;;;34.30;22.00;;;;;;;-1.01;96.74;98354.26;87073;266;137317;-66
2024/01/16 05:31:41;;;;;;;32.70;23.40;;;;;;;-1.04;96.89;98349.65;87222;269;22625;-66
2024/01/16 05:33:43;;;;;;;33.60;21.90;;;;;;;-1.06;97.14;98350.06;87335;265;139193;-68
2024/01/16 05:35:45;;;;;;;29.90;20.40;;;;;;;-1.07;97.18;98352.07;87282;273;24270;-69
2024/01/16 05:37:47;;;;;;;34.20;24.20;;;;;;;-1.08;97.17;98359.55;87169;269;137580;-65
2024/01/16 05:39:49;;;;;;;31.50;21.00;;;;;;;-1.10;97.24;98369.48;87249;277;24173;-69
2024/01/16 05:41:51;;;;;;;32.40;22.40;;;;;;;-1.10;97.41;98375.63;86906;270;401201;-67
2024/01/16 05:43:53;;;;;;;34.30;22.00;;;;;;;-1.08;97.11;98367.37;87158;271;22535;-67
2024/01/16 05:45:55;;;;;;;34.00;22.40;;;;;;;-1.01;97.11;98363.80;87175;270;137102;-64
2024/01/16 05:47:57;;;;;;;28.30;19.90;;;;;;;-0.94;96.83;98363.97;87302;269;23576;-67
2024/01/16 05:50:00;;;;;;;31.70;21.50;;;;;;;-0.88;96.78;98367.30;87235;269;136787;-65
2024/01/16 05:52:02;;;;;;;26.50;19.80;;;;;;;-0.84;96.71;98370.94;87191;270;22567;-65
2024/01/16 05:54:04;;;;;;;41.40;26.00;;;;;;;-0.87;96.62;98371.10;87218;272;24035;-66
2024/01/16 05:56:06;;;;;;;32.20;21.10;;;;;;;-0.87;97.11;98377.33;87155;271;136612;-65
2024/01/16 05:58:07;;;;;;;29.40;20.40;;;;;;;-0.87;97.01;98379.98;87345;270;22636;-69
2024/01/16 06:00:17;;;;;;;27.00;18.40;;;;;;;-0.85;96.93;98374.73;87282;274;136470;-68
2024/01/16 06:02:19;;;;;;;24.70;18.90;;;;;;;-0.86;96.61;98376.56;87399;270;22584;-66
2024/01/16 06:04:21;;;;;;;24.00;18.50;;;;;;;-0.88;96.62;98377.12;87208;277;137158;-66
2024/01/16 06:06:23;;;;;;;32.60;20.40;;;;;;;-0.89;96.52;98382.30;87394;267;22661;-67
2024/01/16 06:08:25;;;;;;;26.90;19.20;;;;;;;-0.90;96.41;98386.11;87203;266;136420;-66
2024/01/16 06:10:27;;;;;;;27.80;19.20;;;;;;;-0.93;96.27;98389.70;87281;270;22589;-71
2024/01/16 06:12:29;;;;;;;25.60;17.90;;;;;;;-0.94;96.44;98396.29;87149;265;137914;-72
2024/01/16 06:14:30;;;;;;;23.70;17.40;;;;;;;-0.97;96.49;98405.09;87351;268;25203;-74
2024/01/16 06:16:32;;;;;;;25.70;18.20;;;;;;;-1.00;96.48;98407.24;87205;272;136773;-73
2024/01/16 06:18:35;;;;;;;24.80;17.90;;;;;;;-0.94;96.30;98406.67;87295;267;22578;-72
2024/01/16 06:20:37;;;;;;;27.80;19.10;;;;;;;-0.82;96.04;98413.31;87246;266;136982;-72
2024/01/16 06:22:41;;;;;;;23.00;17.40;;;;;;;-0.75;95.76;98419.17;87421;273;22558;-72
2024/01/16 06:24:43;;;;;;;26.50;18.60;;;;;;;-0.72;95.82;98413.60;87079;265;137364;-72
2024/01/16 06:26:45;;;;;;;24.60;18.70;;;;;;;-0.73;96.01;98411.80;87168;270;22754;-73
2024/01/16 06:28:48;;;;;;;27.30;19.50;;;;;;;-0.73;95.91;98416.88;87192;268;136386;-72
2024/01/16 06:30:50;;;;;;;26.20;17.70;;;;;;;-0.71;96.07;98412.08;87244;268;22571;-71
2024/01/16 06:32:52;;;;;;;26.90;19.20;;;;;;;-0.69;95.84;98411.39;87045;267;136440;-71
2024/01/16 06:34:55;;;;;;;27.70;18.40;;;;;;;-0.66;95.60;98415.27;87193;269;24415;-74
2024/01/16 06:36:57;;;;;;;28.90;19.00;;;;;;;-0.62;95.43;98408.83;87094;265;154076;-71
2024/01/16 06:38:58;;;;;;;23.50;17.40;;;;;;;-0.58;95.29;98417.17;87163;277;22648;-73
2024/01/16 06:41:01;;;;;;;27.80;18.70;;;;;;;-0.55;95.06;98417.39;87041;273;137269;-72
2024/01/16 06:43:03;;;;;;;26.40;16.60;;;;;;;-0.54;95.21;98416.79;87157;269;22559;-72
2024/01/16 06:45:05;;;;;;;24.80;17.20;;;;;;;-0.52;94.98;98416.02;87095;269;136259;-72
2024/01/16 06:47:07;;;;;;;22.30;17.80;;;;;;;-0.50;94.80;98418.61;87191;265;25119;-75
2024/01/16 06:49:09;;;;;;;23.70;17.60;;;;;;;-0.47;94.70;98417.56;87103;265;137507;-73
2024/01/16 06:51:13;;;;;;;25.70;17.80;;;;;;;-0.40;94.59;98410.95;87186;273;25230;-73
2024/01/16 06:53:15;;;;;;;25.10;16.90;;;;;;;-0.29;94.22;98413.91;87185;264;137818;-71
2024/01/16 06:55:18;;;;;;;25.70;17.50;;;;;;;-0.12;93.60;98417.68;87545;268;22573;-73
2024/01/16 06:57:20;;;;;;;28.70;20.10;;;;;;;0.05;92.94;98421.96;87185;268;137080;-73
2024/01/16 06:59:21;;;;;;;25.10;19.30;;;;;;;0.18;92.12;98417.83;87224;273;22670;-73
2024/01/16 07:01:24;;;;;;;23.40;17.30;;;;;;;0.28;91.61;98421.90;86984;273;136224;-73
2024/01/16 07:03:27;;;;;;;23.60;17.60;;;;;;;0.36;92.00;98424.28;87173;270;22572;-72
2024/01/16 07:05:29;;;;;;;25.40;17.60;;;;;;;0.44;92.11;98425.34;87079;273;137295;-74
2024/01/16 07:07:31;;;;;;;23.20;16.70;;;;;;;0.55;91.45;98427.29;87352;272;22771;-73
2024/01/16 07:09:33;;;;;;;22.10;16.30;;;;;;;0.64;91.03;98432.89;87138;273;136478;-72
2024/01/16 07:11:35;;;;;;;26.40;18.50;;;;;;;0.71;89.96;98434.15;87173;273;22584;-76
2024/01/16 07:13:37;;;;;;;24.40;17.20;;;;;;;0.77;88.43;98435.27;87228;269;137543;-74
2024/01/16 07:15:39;;;;;;;25.80;17.90;;;;;;;0.79;86.59;98433.31;87102;269;22521;-73
2024/01/16 07:17:41;;;;;;;22.60;17.40;;;;;;;0.79;86.46;98430.35;87057;270;136080;-75
2024/01/16 07:19:43;;;;;;;24.40;17.90;;;;;;;0.82;86.97;98435.45;87219;268;25118;-77
2024/01/16 07:21:45;;;;;;;23.80;16.20;;;;;;;0.89;86.16;98434.09;87124;278;136195;-75
2024/01/16 07:23:48;;;;;;;24.60;18.60;;;;;;;0.82;84.07;98436.83;87191;271;22575;-73
2024/01/16 07:25:50;;;;;;;26.70;18.90;;;;;;;0.72;84.99;98437.27;87278;265;137611;-72
2024/01/16 07:27:52;;;;;;;24.90;17.20;;;;;;;0.73;84.70;98437.69;87196;273;22534;-73
2024/01/16 07:29:54;;;;;;;24.50;17.50;;;;;;;0.70;84.70;98434.30;87009;271;135534;-73
2024/01/16 07:31:56;;;;;;;23.70;17.50;;;;;;;0.67;84.89;98434.67;87118;269;23997;-73
2024/01/16 07:33:58;;;;;;;26.00;18.40;;;;;;;0.65;85.08;98436.52;87234;266;136861;-72
2024/01/16 07:36:00;;;;;;;25.70;17.60;;;;;;;0.67;85.10;98436.80;87139;269;23997;-73
2024/01/16 07:38:03;;;;;;;23.70;18.00;;;;;;;0.64;84.67;98434.82;87382;269;22558;-73
2024/01/16 07:40:09;;;;;;;22.40;15.30;;;;;;;0.61;84.68;98432.26;87267;270;137403;-74
2024/01/16 07:42:11;;;;;;;26.70;20.00;;;;;;;0.58;84.90;98439.54;87438;273;22545;-75
2024/01/16 07:44:13;;;;;;;22.40;17.10;;;;;;;0.54;85.02;98440.65;87116;269;137464;-73
2024/01/16 07:46:16;;;;;;;26.70;17.60;;;;;;;0.52;85.01;98441.88;87164;277;22573;-72
2024/01/16 07:48:18;;;;;;;21.70;16.30;;;;;;;0.47;84.47;98441.65;87155;265;136247;-74
2024/01/16 07:50:20;;;;;;;20.40;16.00;;;;;;;0.42;84.77;98444.02;87133;270;26295;-73
2024/01/16 07:52:22;;;;;;;25.50;16.60;;;;;;;0.41;85.19;98446.41;87098;269;137388;-73
2024/01/16 07:54:25;;;;;;;20.00;14.90;;;;;;;0.44;84.92;98447.48;87170;265;24004;-72
2024/01/16 07:56:27;;;;;;;19.20;14.80;;;;;;;0.44;85.16;98451.35;87320;269;136061;-73
2024/01/16 07:58:29;;;;;;;23.40;16.00;;;;;;;0.48;85.00;98445.87;87165;273;22563;-72
2024/01/16 08:00:31;;;;;;;19.90;13.50;;;;;;;0.52;84.78;98444.84;87011;276;136165;-72
2024/01/16 08:02:37;;;;;;;19.30;12.70;;;;;;;0.53;84.18;98442.50;87241;268;22588;-75
2024/01/16 08:04:39;;;;;;;19.50;14.70;;;;;;;0.56;83.30;98445.31;87108;269;136999;-72
2024/01/16 08:06:42;;;;;;;18.20;13.30;;;;;;;0.60;83.16;98444.95;87165;269;22526;-71
2024/01/16 08:08:45;;;;;;;20.50;14.30;;;;;;;0.53;83.72;98444.23;87050;271;135705;-74
2024/01/16 08:10:48;;;;;;;19.50;13.80;;;;;;;0.48;84.03;98444.84;87455;269;23893;-80
2024/01/16 08:12:49;;;;;;;20.50;14.80;;;;;;;0.48;83.55;98446.41;87181;269;137550;-81
2024/01/16 08:14:52;;;;;;;22.30;16.10;;;;;;;0.47;84.16;98448.23;87319;265;25112;-76
2024/01/16 08:16:54;;;;;;;23.00;16.50;;;;;;;0.52;84.30;98451.33;87173;262;136302;-67
2024/01/16 08:18:56;;;;;;;21.20;14.70;;;;;;;0.56;84.36;98447.77;87148;274;22565;-72
2024/01/16 08:20:58;;;;;;;23.00;16.00;;;;;;;0.60;84.02;98451.33;87271;266;138022;-77
2024/01/16 08:23:00;;;;;;;21.60;15.10;;;;;;;0.61;83.94;98453.16;87242;266;24142;-70
2024/01/16 08:25:04;;;;;;;22.50;14.50;;;;;;;0.53;83.30;98454.39;87047;270;136075;-68
2024/01/16 08:27:06;;;;;;;24.00;15.00;;;;;;;0.52;83.35;98457.48;87657;266;22558;-69
2024/01/16 08:29:08;;;;;;;19.60;14.80;;;;;;;0.51;83.74;98458.10;87248;274;135817;-70
2024/01/16 08:31:10;;;;;;;21.90;15.80;;;;;;;0.51;84.03;98456.66;87109;269;22564;-68
2024/01/16 08:33:12;;;;;;;19.40;14.80;;;;;;;0.50;83.97;98459.61;87097;269;136393;-68
2024/01/16 08:35:14;;;;;;;23.20;15.70;;;;;;;0.47;84.01;98453.64;87348;271;22580;-70
2024/01/16 08:37:16;;;;;;;24.20;17.00;;;;;;;0.44;83.97;98458.41;87023;261;136396;-69
2024/01/16 08:39:18;;;;;;;22.30;15.90;;;;;;;0.41;84.30;98460.45;87052;262;23913;-69
2024/01/16 08:41:20;;;;;;;21.00;16.00;;;;;;;0.42;84.71;98456.81;87086;270;136210;-68
2024/01/16 08:43:22;;;;;;;23.80;15.90;;;;;;;0.47;84.85;98455.97;87206;270;22581;-71
2024/01/16 08:45:26;;;;;;;21.30;14.90;;;;;;;0.54;84.67;98460.60;87124;269;136434;-70
2024/01/16 08:47:28;;;;;;;19.50;14.90;;;;;;;0.59;84.78;98458.16;87395;266;23833;-71
2024/01/16 08:49:32;;;;;;;19.70;13.30;;;;;;;0.64;84.48;98464.32;87241;270;137140;-79
2024/01/16 08:51:34;;;;;;;18.20;12.80;;;;;;;0.71;84.22;98467.77;87294;270;22586;-75
2024/01/16 08:53:37;;;;;;;17.60;13.80;;;;;;;0.76;83.95;98467.02;86980;269;136204;-74
2024/01/16 08:55:40;;;;;;;20.20;13.90;;;;;;;0.81;84.20;98466.47;87496;266;25170;-74
2024/01/16 08:57:41;;;;;;;21.40;15.90;;;;;;;0.87;83.67;98472.08;87232;270;137279;-76
2024/01/16 08:59:43;;;;;;;24.50;18.90;;;;;;;0.91;83.02;98472.88;87185;269;22625;-76
2024/01/16 09:01:46;;;;;;;28.00;19.60;;;;;;;0.93;82.89;98470.41;87336;263;136051;-73
2024/01/16 09:03:47;;;;;;;26.20;16.90;;;;;;;0.95;82.46;98475.02;87141;266;25633;-76
2024/01/16 09:05:49;;;;;;;21.30;16.50;;;;;;;0.95;81.94;98475.21;87072;269;137128;-76
2024/01/16 09:07:52;;;;;;;19.60;14.70;;;;;;;0.92;81.66;98477.53;87150;269;22653;-73
2024/01/16 09:09:54;;;;;;;16.30;12.20;;;;;;;0.89;81.48;98469.11;87447;270;136979;-73
2024/01/16 09:11:57;;;;;;;14.90;10.80;;;;;;;0.87;81.11;98474.45;87446;270;22561;-76
2024/01/16 09:13:59;;;;;;;14.60;11.50;;;;;;;0.79;81.12;98475.63;87546;270;137374;-74
2024/01/16 09:16:05;;;;;;;15.60;10.90;;;;;;;0.70;80.26;98474.73;87360;270;136376;-73
2024/01/16 09:18:07;;;;;;;13.20;9.30;;;;;;;0.63;80.66;98481.30;87209;269;22578;-74
2024/01/16 09:20:09;;;;;;;12.30;9.70;;;;;;;0.59;80.47;98485.91;87225;267;137196;-76
2024/01/16 09:22:11;;;;;;;14.90;10.60;;;;;;;0.54;80.02;98492.70;87580;275;25176;-79
2024/01/16 09:24:13;;;;;;;10.90;7.50;;;;;;;0.50;80.10;98489.27;87560;269;136209;-74
2024/01/16 09:26:15;;;;;;;10.20;8.80;;;;;;;0.47;81.01;98490.66;87225;273;25252;-79
2024/01/16 09:28:18;;;;;;;11.20;9.50;;;;;;;0.46;80.81;98483.50;86993;261;135893;-74